createdAt,value
2023-04-07T00:00:27.685Z,9.40
2023-04-07T00:02:54.583Z,9.40
2023-04-07T00:05:21.569Z,9.40
2023-04-07T00:07:56.272Z,9.40
2023-04-07T00:10:25.214Z,9.30
2023-04-07T00:12:52.419Z,9.30
2023-04-07T00:15:19.514Z,9.30
2023-04-07T00:17:46.394Z,9.30
2023-04-07T00:20:13.265Z,9.30
2023-04-07T00:22:40.382Z,9.40
2023-04-07T00:25:07.915Z,9.30
2023-04-07T00:27:34.831Z,9.40
2023-04-07T00:30:02.365Z,9.30
2023-04-07T00:32:29.146Z,9.30
2023-04-07T00:34:56.072Z,9.30
2023-04-07T00:37:23.841Z,9.30
2023-04-07T00:39:51.678Z,9.30
2023-04-07T00:42:19.557Z,9.30
2023-04-07T00:44:46.504Z,9.30
2023-04-07T00:47:13.545Z,9.30
2023-04-07T00:49:40.330Z,9.30
2023-04-07T00:52:11.394Z,9.30
2023-04-07T00:54:39.594Z,9.30
2023-04-07T00:57:07.108Z,9.30
2023-04-07T00:59:34.479Z,9.30
2023-04-07T01:02:31.517Z,9.30
2023-04-07T01:05:15.090Z,9.30
2023-04-07T01:08:20.940Z,9.30
2023-04-07T01:11:19.409Z,9.30
2023-04-07T01:13:51.586Z,9.30
2023-04-07T01:16:42.632Z,9.30
2023-04-07T01:19:23.474Z,9.30
2023-04-07T01:21:58.996Z,9.30
2023-04-07T01:25:07.044Z,9.30
2023-04-07T01:28:02.076Z,9.30
2023-04-07T01:30:39.573Z,9.30
2023-04-07T01:33:09.848Z,9.40
2023-04-07T01:35:39.617Z,9.40
2023-04-07T01:38:08.337Z,9.30
2023-04-07T01:40:37.380Z,9.40
2023-04-07T01:43:05.736Z,9.40
2023-04-07T01:45:35.885Z,9.30
2023-04-07T01:48:07.411Z,9.30
2023-04-07T01:50:35.158Z,9.30
2023-04-07T01:53:03.824Z,9.30
2023-04-07T01:55:32.160Z,9.30
2023-04-07T01:58:07.458Z,9.30
2023-04-07T02:00:36.704Z,9.30
2023-04-07T02:03:21.264Z,9.30
2023-04-07T02:05:54.623Z,9.30
2023-04-07T02:08:30.460Z,9.30
2023-04-07T02:11:00.942Z,9.20
2023-04-07T02:13:34.776Z,9.30
2023-04-07T02:16:02.451Z,9.30
2023-04-07T02:18:32.239Z,9.30
2023-04-07T02:21:01.215Z,9.30
2023-04-07T02:23:28.344Z,9.30
2023-04-07T02:25:58.258Z,9.30
2023-04-07T02:28:25.428Z,9.30
2023-04-07T02:30:52.219Z,9.30
2023-04-07T02:33:18.956Z,9.30
2023-04-07T02:35:45.738Z,9.30
2023-04-07T02:38:12.540Z,9.30
2023-04-07T02:40:39.378Z,9.30
2023-04-07T02:43:06.331Z,9.30
2023-04-07T02:45:33.142Z,9.30
2023-04-07T02:47:59.907Z,9.30
2023-04-07T02:50:26.737Z,9.30
2023-04-07T02:52:53.549Z,9.30
2023-04-07T02:55:20.436Z,9.20
2023-04-07T02:57:47.284Z,9.20
2023-04-07T03:00:26.362Z,9.20
2023-04-07T03:03:01.902Z,9.30
2023-04-07T03:05:32.368Z,9.30
2023-04-07T03:08:00.892Z,9.30
2023-04-07T03:10:27.745Z,9.30
2023-04-07T03:12:54.580Z,9.30
2023-04-07T03:15:21.488Z,9.30
2023-04-07T03:17:49.155Z,9.30
2023-04-07T03:20:17.433Z,9.30
2023-04-07T03:22:44.710Z,9.30
2023-04-07T03:25:18.036Z,9.30
2023-04-07T03:27:45.536Z,9.20
2023-04-07T03:30:14.384Z,9.30
2023-04-07T03:32:41.211Z,9.30
2023-04-07T03:35:10.158Z,9.30
2023-04-07T03:37:37.449Z,9.30
2023-04-07T03:40:07.656Z,9.30
2023-04-07T03:42:36.169Z,9.30
2023-04-07T03:45:06.982Z,9.30
2023-04-07T03:47:35.996Z,9.30
2023-04-07T03:50:05.534Z,9.20
2023-04-07T03:52:37.232Z,9.30
2023-04-07T03:55:12.596Z,9.40
2023-04-07T03:57:40.822Z,9.40
2023-04-07T04:00:10.314Z,9.30
2023-04-07T04:03:02.123Z,9.30
2023-04-07T04:05:29.450Z,9.30
2023-04-07T04:07:57.922Z,9.30
2023-04-07T04:10:26.015Z,9.30
2023-04-07T04:12:54.018Z,9.30
2023-04-07T04:15:20.925Z,9.30
2023-04-07T04:17:49.300Z,9.40
2023-04-07T04:20:16.393Z,9.40
2023-04-07T04:22:47.016Z,9.30
2023-04-07T04:25:14.042Z,9.20
2023-04-07T04:27:46.119Z,9.30
2023-04-07T04:30:22.806Z,9.30
2023-04-07T04:32:53.492Z,9.40
2023-04-07T04:35:27.153Z,9.30
2023-04-07T04:38:09.666Z,9.30
2023-04-07T04:40:38.992Z,9.30
2023-04-07T04:43:07.084Z,9.40
2023-04-07T04:45:36.636Z,9.30
2023-04-07T04:48:04.754Z,9.30
2023-04-07T04:50:31.609Z,9.30
2023-04-07T04:52:58.548Z,9.30
2023-04-07T04:55:25.444Z,9.30
2023-04-07T04:57:53.808Z,9.30
2023-04-07T05:00:28.966Z,9.30
2023-04-07T05:03:01.284Z,9.30
2023-04-07T05:05:28.452Z,9.30
2023-04-07T05:07:56.304Z,9.30
2023-04-07T05:10:26.021Z,9.20
2023-04-07T05:12:52.882Z,9.30
2023-04-07T05:15:20.258Z,9.30
2023-04-07T05:17:50.562Z,9.30
2023-04-07T05:20:22.623Z,9.30
2023-04-07T05:22:50.074Z,9.30
2023-04-07T05:25:18.617Z,9.30
2023-04-07T05:27:47.492Z,9.30
2023-04-07T05:30:16.609Z,9.20
2023-04-07T05:32:44.125Z,9.30
2023-04-07T05:35:28.962Z,9.30
2023-04-07T05:37:57.638Z,9.30
2023-04-07T05:40:24.627Z,9.30
2023-04-07T05:42:51.714Z,9.30
2023-04-07T05:45:18.560Z,9.30
2023-04-07T05:47:50.168Z,9.20
2023-04-07T05:50:22.228Z,9.20
2023-04-07T05:52:50.315Z,9.20
2023-04-07T05:55:25.897Z,9.20
2023-04-07T05:57:52.939Z,9.20
2023-04-07T06:00:22.581Z,9.20
2023-04-07T06:02:59.942Z,9.20
2023-04-07T06:05:28.178Z,9.20
2023-04-07T06:07:56.605Z,9.20
2023-04-07T06:10:26.664Z,9.20
2023-04-07T06:12:53.600Z,9.20
2023-04-07T06:15:21.228Z,9.20
2023-04-07T06:17:48.157Z,9.20
2023-04-07T06:20:15.003Z,9.20
2023-04-07T06:22:41.877Z,9.20
2023-04-07T06:25:09.558Z,9.20
2023-04-07T06:27:36.504Z,9.20
2023-04-07T06:30:03.801Z,9.20
2023-04-07T06:32:30.744Z,9.20
2023-04-07T06:34:57.706Z,9.20
2023-04-07T06:37:26.017Z,9.20
2023-04-07T06:39:53.064Z,9.30
2023-04-07T06:42:19.897Z,9.30
2023-04-07T06:44:58.242Z,9.30
2023-04-07T06:47:25.141Z,9.30
2023-04-07T06:49:51.898Z,9.20
2023-04-07T06:52:18.701Z,9.30
2023-04-07T06:54:45.582Z,9.30
2023-04-07T06:57:12.371Z,9.40
2023-04-07T06:59:39.361Z,9.40
2023-04-07T07:02:07.572Z,9.30
2023-04-07T07:04:35.426Z,9.40
2023-04-07T07:07:03.260Z,9.40
2023-04-07T07:09:30.132Z,9.40
2023-04-07T07:11:57.927Z,9.50
2023-04-07T07:14:24.800Z,9.40
2023-04-07T07:16:51.609Z,9.40
2023-04-07T07:19:18.378Z,9.40
2023-04-07T07:21:45.177Z,9.40
2023-04-07T07:24:12.127Z,9.40
2023-04-07T07:26:38.953Z,9.40
2023-04-07T07:29:05.888Z,9.50
2023-04-07T07:31:32.767Z,9.50
2023-04-07T07:34:00.764Z,9.60
2023-04-07T07:36:27.686Z,9.60
2023-04-07T07:38:54.517Z,9.70
2023-04-07T07:41:21.590Z,9.70
2023-04-07T07:43:48.782Z,9.70
2023-04-07T07:46:15.964Z,9.70
2023-04-07T07:48:42.938Z,9.70
2023-04-07T07:51:09.825Z,9.70
2023-04-07T07:53:36.600Z,9.80
2023-04-07T07:56:03.592Z,9.80
2023-04-07T07:58:30.579Z,9.80
2023-04-07T08:00:57.642Z,9.80
2023-04-07T08:03:24.610Z,9.80
2023-04-07T08:05:51.730Z,9.80
2023-04-07T08:08:18.569Z,9.80
2023-04-07T08:10:45.685Z,9.90
2023-04-07T08:13:13.063Z,9.90
2023-04-07T08:15:40.934Z,9.90
2023-04-07T08:18:07.954Z,9.80
2023-04-07T08:20:34.896Z,9.80
2023-04-07T08:23:02.228Z,9.90
2023-04-07T08:25:29.598Z,9.80
2023-04-07T08:27:56.565Z,9.80
2023-04-07T08:30:23.510Z,9.80
2023-04-07T08:32:50.347Z,9.90
2023-04-07T08:35:17.198Z,9.90
2023-04-07T08:37:44.379Z,9.90
2023-04-07T08:40:12.632Z,10.00
2023-04-07T08:42:44.222Z,10.00
2023-04-07T08:45:12.522Z,9.90
2023-04-07T08:47:44.193Z,10.00
2023-04-07T08:50:12.346Z,10.00
2023-04-07T08:52:49.985Z,10.10
2023-04-07T08:55:17.149Z,10.00
2023-04-07T08:57:44.039Z,10.10
2023-04-07T09:00:12.060Z,10.20
2023-04-07T09:02:44.407Z,10.20
2023-04-07T09:05:14.527Z,10.20
2023-04-07T09:07:43.182Z,10.20
2023-04-07T09:10:10.678Z,10.20
2023-04-07T09:12:38.817Z,10.30
2023-04-07T09:15:07.866Z,10.40
2023-04-07T09:17:35.313Z,10.40
2023-04-07T09:20:04.264Z,10.40
2023-04-07T09:22:43.582Z,10.60
2023-04-07T09:25:23.744Z,10.70
2023-04-07T09:28:01.954Z,11.00
2023-04-07T09:30:33.779Z,11.10
2023-04-07T09:33:02.006Z,11.10
2023-04-07T09:35:29.720Z,11.10
2023-04-07T09:38:03.623Z,11.00
2023-04-07T09:40:31.104Z,10.80
2023-04-07T09:42:58.677Z,10.80
2023-04-07T09:45:34.669Z,10.80
2023-04-07T09:48:20.272Z,10.80
2023-04-07T09:50:52.095Z,10.60
2023-04-07T09:53:20.191Z,10.60
2023-04-07T09:55:48.290Z,10.60
2023-04-07T09:58:16.713Z,10.60
2023-04-07T10:00:45.548Z,10.60
2023-04-07T10:03:13.423Z,10.70
2023-04-07T10:05:41.272Z,10.80
2023-04-07T10:08:09.833Z,10.90
2023-04-07T10:10:41.749Z,11.00
2023-04-07T10:13:08.560Z,11.10
2023-04-07T10:15:37.019Z,11.00
2023-04-07T10:18:07.451Z,10.80
2023-04-07T10:20:36.921Z,10.80
2023-04-07T10:23:32.477Z,10.80
2023-04-07T10:26:01.129Z,10.70
2023-04-07T10:28:31.925Z,10.80
2023-04-07T10:30:59.918Z,10.80
2023-04-07T10:33:52.128Z,10.70
2023-04-07T10:36:21.470Z,10.80
2023-04-07T10:39:11.503Z,10.80
2023-04-07T10:41:41.371Z,10.80
2023-04-07T10:44:19.196Z,11.00
2023-04-07T10:46:46.596Z,10.90
2023-04-07T10:49:18.433Z,11.00
2023-04-07T10:52:11.724Z,11.00
2023-04-07T10:54:42.755Z,11.00
2023-04-07T10:57:15.658Z,11.00
2023-04-07T11:00:11.876Z,11.00
2023-04-07T11:02:40.233Z,11.00
2023-04-07T11:05:07.813Z,10.90
2023-04-07T11:07:47.329Z,10.90
2023-04-07T11:10:16.415Z,11.00
2023-04-07T11:12:43.899Z,11.10
2023-04-07T11:15:22.171Z,11.10
2023-04-07T11:18:13.568Z,11.10
2023-04-07T11:20:59.059Z,11.20
2023-04-07T11:23:27.288Z,11.20
2023-04-07T11:26:01.945Z,11.40
2023-04-07T11:28:30.439Z,11.50
2023-04-07T11:30:58.505Z,11.50
2023-04-07T11:33:32.086Z,11.50
2023-04-07T11:36:02.169Z,11.50
2023-04-07T11:38:35.601Z,11.50
2023-04-07T11:41:12.949Z,11.40
2023-04-07T11:43:41.880Z,11.60
2023-04-07T11:46:17.703Z,11.60
2023-04-07T11:48:47.175Z,11.60
2023-04-07T11:51:19.079Z,11.70
2023-04-07T11:53:47.318Z,11.70
2023-04-07T11:56:18.436Z,11.70
2023-04-07T11:58:53.905Z,11.80
2023-04-07T12:01:22.288Z,11.70
2023-04-07T12:04:00.403Z,11.70
2023-04-07T12:06:31.833Z,11.70
2023-04-07T12:08:58.801Z,11.70
2023-04-07T12:11:25.559Z,11.70
2023-04-07T12:13:52.892Z,11.60
2023-04-07T12:16:21.879Z,11.60
2023-04-07T12:18:49.223Z,11.60
2023-04-07T12:21:16.198Z,11.70
2023-04-07T12:23:43.075Z,11.60
2023-04-07T12:26:11.807Z,11.60
2023-04-07T12:28:38.966Z,11.70
2023-04-07T12:31:05.826Z,11.70
2023-04-07T12:33:32.681Z,11.60
2023-04-07T12:35:59.602Z,11.40
2023-04-07T12:38:27.087Z,11.50
2023-04-07T12:40:54.169Z,11.50
2023-04-07T12:43:21.013Z,11.50
2023-04-07T12:45:47.892Z,11.40
2023-04-07T12:48:16.215Z,11.50
2023-04-07T12:50:43.158Z,11.50
2023-04-07T12:53:10.104Z,11.50
2023-04-07T12:55:37.341Z,11.50
2023-04-07T12:58:04.705Z,11.50
2023-04-07T13:00:31.735Z,11.50
2023-04-07T13:02:58.855Z,11.40
2023-04-07T13:05:25.917Z,11.40
2023-04-07T13:07:53.931Z,11.30
2023-04-07T13:10:21.298Z,11.40
2023-04-07T13:12:48.745Z,11.50
2023-04-07T13:15:15.709Z,11.50
2023-04-07T13:17:42.656Z,11.60
2023-04-07T13:20:09.966Z,11.70
2023-04-07T13:22:46.125Z,11.80
2023-04-07T13:25:15.761Z,11.80
2023-04-07T13:27:42.614Z,11.80
2023-04-07T13:30:10.442Z,11.70
2023-04-07T13:32:37.400Z,11.70
2023-04-07T13:35:04.854Z,11.70
2023-04-07T13:37:31.709Z,11.60
2023-04-07T13:39:58.661Z,11.60
2023-04-07T13:42:25.671Z,11.60
2023-04-07T13:44:54.400Z,11.60
2023-04-07T13:47:21.644Z,11.60
2023-04-07T13:49:49.637Z,11.60
2023-04-07T13:52:16.561Z,11.70
2023-04-07T13:54:45.112Z,11.60
2023-04-07T13:57:12.769Z,11.50
2023-04-07T13:59:39.584Z,11.60
2023-04-07T14:02:07.135Z,11.50
2023-04-07T14:04:34.156Z,11.50
2023-04-07T14:07:01.041Z,11.50
2023-04-07T14:09:27.940Z,11.50
2023-04-07T14:11:54.747Z,11.40
2023-04-07T14:14:21.603Z,11.40
2023-04-07T14:16:51.785Z,11.30
2023-04-07T14:19:23.180Z,11.30
2023-04-07T14:21:51.429Z,11.30
2023-04-07T14:24:18.260Z,11.40
2023-04-07T14:26:46.284Z,11.40
2023-04-07T14:29:14.874Z,11.30
2023-04-07T14:31:42.076Z,11.40
2023-04-07T14:34:08.979Z,11.40
2023-04-07T14:36:35.985Z,11.30
2023-04-07T14:39:03.824Z,11.30
2023-04-07T14:41:31.464Z,11.30
2023-04-07T14:43:58.598Z,11.30
2023-04-07T14:46:28.991Z,11.30
2023-04-07T14:48:58.286Z,11.30
2023-04-07T14:51:25.259Z,11.30
2023-04-07T14:53:55.877Z,11.30
2023-04-07T14:56:24.780Z,11.20
2023-04-07T14:58:51.973Z,11.20
2023-04-07T15:01:18.834Z,11.20
2023-04-07T15:03:47.275Z,11.20
2023-04-07T15:06:14.412Z,11.30
2023-04-07T15:08:41.343Z,11.20
2023-04-07T15:11:08.904Z,11.10
2023-04-07T15:13:37.135Z,11.10
2023-04-07T15:16:13.343Z,11.00
2023-04-07T15:18:44.481Z,10.90
2023-04-07T15:21:13.438Z,10.80
2023-04-07T15:23:41.761Z,10.80
2023-04-07T15:26:10.324Z,10.80
2023-04-07T15:28:37.731Z,10.80
2023-04-07T15:31:08.663Z,10.80
2023-04-07T15:33:40.547Z,10.80
2023-04-07T15:36:09.054Z,10.80
2023-04-07T15:38:38.664Z,10.80
2023-04-07T15:41:05.675Z,10.70
2023-04-07T15:43:32.502Z,10.70
2023-04-07T15:45:59.331Z,10.70
2023-04-07T15:48:26.349Z,10.70
2023-04-07T15:50:54.020Z,10.80
2023-04-07T15:53:21.064Z,10.80
2023-04-07T15:55:47.902Z,10.70
2023-04-07T15:58:14.978Z,10.70
2023-04-07T16:00:42.207Z,10.80
2023-04-07T16:03:09.243Z,10.70
2023-04-07T16:05:37.920Z,10.70
2023-04-07T16:08:04.909Z,10.80
2023-04-07T16:10:31.717Z,10.80
2023-04-07T16:12:58.611Z,10.80
2023-04-07T16:17:59.782Z,10.80
2023-04-07T16:20:26.953Z,10.70
2023-04-07T16:22:53.980Z,10.70
2023-04-07T16:25:20.948Z,10.70
2023-04-07T16:27:47.725Z,10.70
2023-04-07T16:30:15.527Z,10.60
2023-04-07T16:32:46.816Z,10.70
2023-04-07T16:35:15.346Z,10.70
2023-04-07T16:37:43.534Z,10.60
2023-04-07T16:40:11.105Z,10.60
2023-04-07T16:42:38.428Z,10.60
2023-04-07T16:45:06.119Z,10.60
2023-04-07T16:47:33.135Z,10.50
2023-04-07T16:50:00.177Z,10.60
2023-04-07T16:52:27.059Z,10.60
2023-04-07T16:54:53.851Z,10.60
2023-04-07T16:57:20.765Z,10.60
2023-04-07T16:59:48.378Z,10.50
2023-04-07T17:02:18.750Z,10.60
2023-04-07T17:04:45.697Z,10.60
2023-04-07T17:07:12.744Z,10.60
2023-04-07T17:09:40.122Z,10.60
2023-04-07T17:12:07.209Z,10.60
2023-04-07T17:14:34.435Z,10.60
2023-04-07T17:17:02.121Z,10.60
2023-04-07T17:19:29.216Z,10.60
2023-04-07T17:21:56.220Z,10.70
2023-04-07T17:24:23.210Z,10.60
2023-04-07T17:26:50.048Z,10.70
2023-04-07T17:29:17.618Z,10.70
2023-04-07T17:31:44.593Z,10.70
2023-04-07T17:34:11.984Z,10.70
2023-04-07T17:36:39.175Z,10.70
2023-04-07T17:39:06.083Z,10.70
2023-04-07T17:41:38.345Z,10.70
2023-04-07T17:44:05.924Z,10.60
2023-04-07T17:46:32.867Z,10.60
2023-04-07T17:48:59.824Z,10.70
2023-04-07T17:51:27.698Z,10.60
2023-04-07T17:53:54.864Z,10.60
2023-04-07T17:56:22.009Z,10.60
2023-04-07T17:58:48.965Z,10.60
2023-04-07T18:01:16.909Z,10.60
2023-04-07T18:03:44.530Z,10.50
2023-04-07T18:06:16.786Z,10.50
2023-04-07T18:08:49.000Z,10.40
2023-04-07T18:11:17.378Z,10.40
2023-04-07T18:13:44.951Z,10.40
2023-04-07T18:16:17.298Z,10.40
2023-04-07T18:18:46.428Z,10.40
2023-04-07T18:21:13.284Z,10.40
2023-04-07T18:23:40.043Z,10.40
2023-04-07T18:26:06.889Z,10.40
2023-04-07T18:28:34.694Z,10.30
2023-04-07T18:31:07.641Z,10.30
2023-04-07T18:33:36.347Z,10.30
2023-04-07T18:36:08.311Z,10.40
2023-04-07T18:38:36.398Z,10.30
2023-04-07T18:41:03.895Z,10.30
2023-04-07T18:43:31.351Z,10.30
2023-04-07T18:45:58.355Z,10.30
2023-04-07T18:48:26.322Z,10.30
2023-04-07T18:50:55.358Z,10.20
2023-04-07T18:53:24.250Z,10.30
2023-04-07T18:55:51.963Z,10.30
2023-04-07T18:58:19.836Z,10.20
2023-04-07T19:00:49.971Z,10.30
2023-04-07T19:03:17.356Z,10.30
2023-04-07T19:05:47.565Z,10.30
2023-04-07T19:08:15.860Z,10.30
2023-04-07T19:10:43.398Z,10.30
2023-04-07T19:13:10.284Z,10.30
2023-04-07T19:15:39.141Z,10.30
2023-04-07T19:18:08.065Z,10.30
2023-04-07T19:20:34.950Z,10.30
2023-04-07T19:23:02.113Z,10.30
2023-04-07T19:25:30.999Z,10.30
2023-04-07T19:27:58.504Z,10.40
2023-04-07T19:30:25.438Z,10.40
2023-04-07T19:32:52.423Z,10.30
2023-04-07T19:35:19.453Z,10.30
2023-04-07T19:37:47.929Z,10.30
2023-04-07T19:40:15.227Z,10.30
2023-04-07T19:42:42.200Z,10.30
2023-04-07T19:45:09.778Z,10.30
2023-04-07T19:47:37.677Z,10.30
2023-04-07T19:50:05.520Z,10.30
2023-04-07T19:52:33.093Z,10.30
2023-04-07T19:55:01.527Z,10.30
2023-04-07T19:57:28.966Z,10.30
2023-04-07T19:59:56.035Z,10.30
2023-04-07T20:02:23.665Z,10.30
2023-04-07T20:04:51.035Z,10.30
2023-04-07T20:07:17.943Z,10.30
2023-04-07T20:09:44.876Z,10.30
2023-04-07T20:12:11.672Z,10.30
2023-04-07T20:14:38.534Z,10.30
2023-04-07T20:17:05.411Z,10.20
2023-04-07T20:19:32.418Z,10.20
2023-04-07T20:21:59.212Z,10.20
2023-04-07T20:24:26.229Z,10.20
2023-04-07T20:26:53.054Z,10.30
2023-04-07T20:29:22.078Z,10.20
2023-04-07T20:31:49.146Z,10.20
2023-04-07T20:34:16.565Z,10.20
2023-04-07T20:36:43.523Z,10.20
2023-04-07T20:39:10.337Z,10.30
2023-04-07T20:41:37.450Z,10.20
2023-04-07T20:44:04.586Z,10.20
2023-04-07T20:46:33.416Z,10.20
2023-04-07T20:49:00.317Z,10.20
2023-04-07T20:51:27.258Z,10.20
2023-04-07T20:53:54.028Z,10.20
2023-04-07T20:56:21.656Z,10.20
2023-04-07T20:58:48.779Z,10.20
2023-04-07T21:01:16.081Z,10.20
2023-04-07T21:03:42.967Z,10.20
2023-04-07T21:06:09.829Z,10.20
2023-04-07T21:08:36.574Z,10.20
2023-04-07T21:11:03.378Z,10.20
2023-04-07T21:13:30.311Z,10.20
2023-04-07T21:15:59.133Z,10.20
2023-04-07T21:18:27.147Z,10.20
2023-04-07T21:20:57.610Z,10.20
2023-04-07T21:23:24.553Z,10.20
2023-04-07T21:25:51.305Z,10.20
2023-04-07T21:28:18.155Z,10.20
2023-04-07T21:30:45.376Z,10.20
2023-04-07T21:33:13.997Z,10.20
2023-04-07T21:35:41.118Z,10.10
2023-04-07T21:38:08.049Z,10.10
2023-04-07T21:40:34.786Z,10.10
2023-04-07T21:43:01.754Z,10.10
2023-04-07T21:45:29.597Z,10.20
2023-04-07T21:47:56.699Z,10.10
2023-04-07T21:50:24.230Z,10.10
2023-04-07T21:52:53.340Z,10.10
2023-04-07T21:55:20.570Z,10.20
2023-04-07T21:57:47.745Z,10.10
2023-04-07T22:00:15.840Z,10.20
2023-04-07T22:02:45.167Z,10.10
2023-04-07T22:05:12.249Z,10.10
2023-04-07T22:07:38.983Z,10.20
2023-04-07T22:10:06.834Z,10.20
2023-04-07T22:12:33.570Z,10.20
2023-04-07T22:15:00.453Z,10.10
2023-04-07T22:17:27.582Z,10.10
2023-04-07T22:19:54.500Z,10.10
2023-04-07T22:22:21.271Z,10.00
2023-04-07T22:24:48.099Z,10.00
2023-04-07T22:27:14.980Z,10.10
2023-04-07T22:29:41.781Z,10.00
2023-04-07T22:32:08.561Z,10.00
2023-04-07T22:34:35.401Z,10.00
2023-04-07T22:37:02.137Z,10.00
2023-04-07T22:39:28.951Z,10.00
2023-04-07T22:41:55.836Z,10.00
2023-04-07T22:44:22.671Z,10.00
2023-04-07T22:46:49.473Z,9.90
2023-04-07T22:49:16.662Z,9.90
2023-04-07T22:51:48.166Z,9.90
2023-04-07T22:54:15.862Z,9.90
2023-04-07T22:56:43.860Z,9.90
2023-04-07T22:59:10.841Z,9.80
2023-04-07T23:01:37.955Z,9.70
2023-04-07T23:04:04.892Z,9.60
2023-04-07T23:06:32.034Z,9.60
2023-04-07T23:08:58.895Z,9.50
2023-04-07T23:11:25.769Z,9.50
2023-04-07T23:13:52.629Z,9.40
2023-04-07T23:16:19.441Z,9.40
2023-04-07T23:18:46.360Z,9.30
2023-04-07T23:21:13.618Z,9.30
2023-04-07T23:23:40.440Z,9.30
2023-04-07T23:26:07.255Z,9.30
2023-04-07T23:28:34.094Z,9.30
2023-04-07T23:31:02.031Z,9.30
2023-04-07T23:33:33.829Z,9.30
2023-04-07T23:36:00.740Z,9.30
2023-04-07T23:38:27.565Z,9.20
2023-04-07T23:40:54.549Z,9.20
2023-04-07T23:43:21.944Z,9.20
2023-04-07T23:45:48.838Z,9.20
2023-04-07T23:48:16.090Z,9.20
2023-04-07T23:50:42.892Z,9.20
2023-04-07T23:53:09.848Z,9.20
2023-04-07T23:55:36.749Z,9.20
2023-04-07T23:58:03.529Z,9.20
